CMA CGM Magellan — 2DTI4 — position and weather

sailwx.info

Track history (hours):
 
Tides and Currents Weather Stations Pressure Air Temp Water Temp Dewpoint Dewpoint Depression Visibility Wind Speed Wind Dir Waves Ship Positions

CMA CGM Magellan

Last reported at 2017-Oct-09 21:33 UTC. Time now 2017-Oct-17 02:19 UTC.
Position N 36°55' E 000°22'.

Length 365 m; draft 14.8 m.

Type: Ship. MMSI: 235081888.

Date/timePositionNaut miles runAvg speedWind from/ knotsBaromVisibWave heightAir tempDewpointWater temp
2017-Oct-09 21:33N 36°55' E 000°22'117.5
2017-Oct-09 21:30N 36°55' E 000°22'917.7
2017-Oct-09 21:00N 36°52' E 000°11'1217.8
2017-Oct-09 20:20N 36°48' W 000°03'3217.5
2017-Oct-09 18:30N 36°38' W 000°41'29117.5
2017-Oct-09 01:54N 35°60' W 006°38'716.7
2017-Oct-09 01:28N 36°02' W 006°47'1016.6
2017-Oct-09 00:53N 36°04' W 006°59'616.9
2017-Oct-09 00:30N 36°06' W 007°06'917.2
2017-Oct-09 00:00N 36°08' W 007°17'817.2
2017-Oct-08 23:30N 36°11' W 007°27'1317.5
2017-Oct-08 22:46N 36°15' W 007°42'517.1
2017-Oct-08 22:30N 36°16' W 007°47'917.3
2017-Oct-08 22:00N 36°18' W 007°58'917.3
2017-Oct-08 21:30N 36°20' W 008°08'1417.4
2017-Oct-08 20:42N 36°23' W 008°25'617.3
2017-Oct-08 20:23N 36°25' W 008°31'616.9
2017-Oct-08 20:00N 36°26' W 008°39'917.4
2017-Oct-08 19:30N 36°29' W 008°50'917.4
2017-Oct-08 19:00N 36°31' W 008°60'917.1
2017-Oct-08 18:30N 36°33' W 009°10'816.4
2017-Oct-08 18:00N 36°37' W 009°19'917.6
2017-Oct-08 17:30N 36°43' W 009°27'917.0
2017-Oct-08 17:00N 36°50' W 009°33'918.5
2017-Oct-08 16:30N 36°59' W 009°36'816.3
2017-Oct-08 16:00N 37°07' W 009°38'917.4
2017-Oct-08 15:30N 37°16' W 009°41'917.7
2017-Oct-08 15:00N 37°24' W 009°43'917.4
2017-Oct-08 14:30N 37°33' W 009°46'917.3
2017-Oct-08 14:00N 37°41' W 009°49'917.3
2017-Oct-08 13:30N 37°49' W 009°51'917.4
2017-Oct-08 13:00N 37°58' W 009°54'917.6
2017-Oct-08 12:30N 38°06' W 009°57'917.7
2017-Oct-08 12:00N 38°15' W 009°60'917.6
2017-Oct-08 11:30N 38°24' W 010°02'917.5
2017-Oct-08 11:00N 38°32' W 010°04'917.5
2017-Oct-08 10:30N 38°41' W 010°06'917.2
2017-Oct-08 10:00N 38°49' W 010°06'917.0
2017-Oct-08 09:30N 38°58' W 010°07'917.3
2017-Oct-08 09:00N 39°06' W 010°07'918.1
2017-Oct-08 08:30N 39°16' W 010°06'917.6
2017-Oct-08 08:00N 39°24' W 010°06'917.5
2017-Oct-08 07:30N 39°33' W 010°07'917.2
2017-Oct-08 07:00N 39°42' W 010°07'917.6
2017-Oct-08 06:30N 39°50' W 010°06'917.5
2017-Oct-08 06:00N 39°59' W 010°06'817.3
2017-Oct-08 05:30N 40°08' W 010°06'917.3
2017-Oct-08 05:00N 40°17' W 010°06'917.4
2017-Oct-08 04:30N 40°25' W 010°06'917.6
2017-Oct-08 04:00N 40°34' W 010°06'917.5
2017-Oct-08 03:30N 40°43' W 010°06'1017.6
2017-Oct-08 02:58N 40°52' W 010°06'817.5
2017-Oct-08 02:30N 41°00' W 010°06'9917.5
2017-Oct-07 20:52N 42°39' W 010°06'617.7
2017-Oct-07 20:30N 42°45' W 010°06'917.3
2017-Oct-07 20:00N 42°54' W 010°06'917.7
2017-Oct-07 19:30N 43°03' W 010°07'917.6
2017-Oct-07 19:00N 43°12' W 010°06'816.9
2017-Oct-07 18:30N 43°20' W 010°04'1117.3
2017-Oct-07 17:53N 43°29' W 009°56'717.7
2017-Oct-07 17:30N 43°35' W 009°51'1317.4
2017-Oct-07 16:46N 43°46' W 009°44'616.7
2017-Oct-07 16:25N 43°52' W 009°40'817.0
2017-Oct-07 15:56N 43°59' W 009°35'817.5
2017-Oct-07 15:30N 44°06' W 009°30'917.5
2017-Oct-07 15:00N 44°13' W 009°25'917.3
2017-Oct-07 14:29N 44°22' W 009°19'817.5
2017-Oct-07 14:00N 44°29' W 009°14'917.4
2017-Oct-07 13:28N 44°37' W 009°08'4617.6
2017-Oct-07 10:52N 45°18' W 008°37'717.1
2017-Oct-07 10:27N 45°24' W 008°33'917.2
2017-Oct-07 09:57N 45°31' W 008°26'3217.4
2017-Oct-07 08:06N 45°60' W 008°05'1617.4
2017-Oct-07 07:10N 46°14' W 007°54'1518.0
2017-Oct-07 06:22N 46°27' W 007°44'1417.7
2017-Oct-07 05:34N 46°39' W 007°34'217.7
2017-Oct-07 05:27N 46°41' W 007°32'1417.9
2017-Oct-07 04:40N 46°53' W 007°23'317.5
2017-Oct-07 04:30N 46°56' W 007°21'1017.4
2017-Oct-07 03:55N 47°05' W 007°14'717.7
2017-Oct-07 03:30N 47°11' W 007°08'1317.8
2017-Oct-07 02:46N 47°23' W 006°59'717.3
2017-Oct-07 02:24N 47°28' W 006°55'1116.4
2017-Oct-07 01:42N 47°39' W 006°47'416.8
2017-Oct-07 01:29N 47°42' W 006°45'816.6
2017-Oct-07 01:00N 47°49' W 006°39'816.9
2017-Oct-07 00:30N 47°56' W 006°33'917.5
2017-Oct-07 00:00N 48°04' W 006°27'918.2
2017-Oct-06 23:30N 48°12' W 006°21'918.6
2017-Oct-06 23:00N 48°20' W 006°14'1019.2
2017-Oct-06 22:30N 48°29' W 006°07'1019.5
2017-Oct-06 22:00N 48°37' W 006°00'1019.6
2017-Oct-06 21:30N 48°46' W 005°53'918.9
2017-Oct-06 21:00N 48°54' W 005°45'918.7
2017-Oct-06 20:30N 48°59' W 005°33'918.2
2017-Oct-06 20:00N 49°03' W 005°21'917.7
2017-Oct-06 19:30N 49°08' W 005°09'917.1
2017-Oct-06 19:00N 49°12' W 004°58'816.7
2017-Oct-06 18:30N 49°16' W 004°47'816.1
2017-Oct-06 18:00N 49°20' W 004°36'815.7
2017-Oct-06 17:30N 49°24' W 004°26'815.7
2017-Oct-06 16:58N 49°28' W 004°14'3717.0
2017-Oct-06 14:48N 49°46' W 003°25'619.0
2017-Oct-06 14:30N 49°49' W 003°18'1019.7
2017-Oct-06 14:00N 49°54' W 003°04'1020.3
2017-Oct-06 13:30N 49°58' W 002°50'1120.7
2017-Oct-06 12:59N 50°01' W 002°34'1019.8
2017-Oct-06 12:28N 50°01' W 002°18'919.7
2017-Oct-06 12:00N 49°59' W 002°04'1019.0
2017-Oct-06 11:30N 49°57' W 001°50'918.1
2017-Oct-06 11:00N 49°54' W 001°36'917.2
2017-Oct-06 10:30N 49°51' W 001°24'816.2
2017-Oct-06 10:00N 49°48' W 001°12'815.5
2017-Oct-06 09:30N 49°45' W 001°01'815.6
2017-Oct-06 09:00N 49°42' W 000°50'815.6
2017-Oct-06 08:29N 49°40' W 000°38'715.3
2017-Oct-06 08:00N 49°37' W 000°28'815.2
2017-Oct-06 07:30N 49°34' W 000°17'714.4
2017-Oct-06 07:01N 49°31' W 000°07'611.7
2017-Oct-06 06:30N 49°30' E 000°02'5 9.2
2017-Oct-06 06:00N 49°28' E 000°08'1 2.6
2017-Oct-06 05:30N 49°27' E 000°10'0 0.0
2017-Oct-06 05:00N 49°27' E 000°10'0 0.0
2017-Oct-06 04:30N 49°27' E 000°10'0 0.0
2017-Oct-06 04:00N 49°27' E 000°10'0 0.0
2017-Oct-06 03:30N 49°27' E 000°10'0 0.0
2017-Oct-06 03:00N 49°27' E 000°10'0 0.0
2017-Oct-06 02:30N 49°27' E 000°10'0 0.0
2017-Oct-06 02:00N 49°27' E 000°10'0 0.0
2017-Oct-06 01:30N 49°27' E 000°10'0 0.0
2017-Oct-06 01:00N 49°27' E 000°10'0 0.0
2017-Oct-06 00:30N 49°27' E 000°10'0 0.0
2017-Oct-06 00:00N 49°27' E 000°10'0 0.0
2017-Oct-05 23:30N 49°27' E 000°10'0 0.0
2017-Oct-05 23:00N 49°27' E 000°10'0 0.0
2017-Oct-05 22:30N 49°27' E 000°10'0 0.0
2017-Oct-05 22:00N 49°27' E 000°10'0 0.0
2017-Oct-05 21:30N 49°27' E 000°10'0 0.0
2017-Oct-05 21:00N 49°27' E 000°10'0 0.0
2017-Oct-05 20:27N 49°27' E 000°10'0 0.0
2017-Oct-05 20:00N 49°27' E 000°10'0 0.0
2017-Oct-05 19:30N 49°27' E 000°10'0 0.0
2017-Oct-05 19:00N 49°27' E 000°10'0 0.0
2017-Oct-05 18:30N 49°27' E 000°10'0 0.0
2017-Oct-05 18:00N 49°27' E 000°10'0 0.0
2017-Oct-05 17:30N 49°27' E 000°10'0 0.0
2017-Oct-05 17:00N 49°27' E 000°10'0 0.0
2017-Oct-05 15:30N 49°27' E 000°10'0 0.0
2017-Oct-05 15:00N 49°27' E 000°10'0 0.0
2017-Oct-05 14:30N 49°27' E 000°10'0 0.0
2017-Oct-05 14:00N 49°27' E 000°10'0 0.0
2017-Oct-05 13:30N 49°27' E 000°10'0 0.0
2017-Oct-05 13:00N 49°27' E 000°10'0 0.0
2017-Oct-05 12:30N 49°27' E 000°10'0 0.0
2017-Oct-05 12:00N 49°27' E 000°10'0 0.0
2017-Oct-05 11:30N 49°27' E 000°10'0 0.0
2017-Oct-05 11:00N 49°27' E 000°10'0 0.0
2017-Oct-05 10:30N 49°27' E 000°10'0 0.0
2017-Oct-05 10:00N 49°27' E 000°10'0 0.0
2017-Oct-05 09:30N 49°27' E 000°10'0 0.0
2017-Oct-05 08:57N 49°27' E 000°10'0 0.0
2017-Oct-05 08:30N 49°27' E 000°10'0 0.0
2017-Oct-05 08:00N 49°27' E 000°10'0 0.0
2017-Oct-05 07:30N 49°27' E 000°10'0 0.0
2017-Oct-05 07:00N 49°27' E 000°10'0 0.0
2017-Oct-05 06:30N 49°27' E 000°10'0 0.0
2017-Oct-05 06:00N 49°27' E 000°10'0 0.0
2017-Oct-05 05:30N 49°27' E 000°10'0 0.0
2017-Oct-05 05:00N 49°27' E 000°10'0 0.0
2017-Oct-05 04:30N 49°27' E 000°10'0 0.0
2017-Oct-05 04:00N 49°27' E 000°10'0 0.0
2017-Oct-05 03:30N 49°27' E 000°10'0 0.0
2017-Oct-05 03:00N 49°27' E 000°10'0 0.1
2017-Oct-05 02:31N 49°27' E 000°10'1 1.4
2017-Oct-05 02:00N 49°27' E 000°09'4 8.6
2017-Oct-05 01:30N 49°30' E 000°03'612.2
2017-Oct-05 01:00N 49°31' W 000°06'4 8.7
2017-Oct-05 00:31N 49°33' W 000°12'5 9.5
2017-Oct-05 00:00N 49°38' W 000°12'611.1
2017-Oct-04 23:30N 49°43' W 000°12'612.7
2017-Oct-04 23:00N 49°49' W 000°13'612.5
2017-Oct-04 22:30N 49°56' W 000°12'812.8
2017-Oct-04 21:53N 50°04' W 000°12'512.9
2017-Oct-04 21:31N 50°09' W 000°12'713.0
2017-Oct-04 20:58N 50°15' W 000°13'613.1
2017-Oct-04 20:30N 50°22' W 000°12'612.7
2017-Oct-04 20:00N 50°27' W 000°07'613.0
2017-Oct-04 19:30N 50°29' E 000°03'613.0
2017-Oct-04 19:00N 50°31' E 000°13'613.0
2017-Oct-04 18:30N 50°32' E 000°23'612.8
2017-Oct-04 18:00N 50°34' E 000°32'612.5
2017-Oct-04 17:30N 50°37' E 000°41'613.0
2017-Oct-04 17:00N 50°41' E 000°50'612.9
2017-Oct-04 16:30N 50°45' E 000°58'713.0
2017-Oct-04 16:00N 50°48' E 001°06'713.2
2017-Oct-04 15:30N 50°52' E 001°14'713.1
2017-Oct-04 15:00N 50°57' E 001°22'713.4
2017-Oct-04 14:30N 51°02' E 001°29'713.1
2017-Oct-04 14:00N 51°07' E 001°36'713.2
2017-Oct-04 13:30N 51°11' E 001°44'613.0
2017-Oct-04 13:00N 51°17' E 001°50'713.1
2017-Oct-04 12:30N 51°22' E 001°56'611.1
2017-Oct-04 12:00N 51°25' E 002°04'713.3
2017-Oct-04 11:30N 51°22' E 002°13'612.4
2017-Oct-04 11:00N 51°22' E 002°23'612.6
2017-Oct-04 10:30N 51°23' E 002°33'612.2
2017-Oct-04 10:00N 51°23' E 002°43'611.4
2017-Oct-04 09:31N 51°25' E 002°51'815.5
2017-Oct-04 09:00N 51°25' E 003°04'612.1
2017-Oct-04 08:30N 51°21' E 003°12'1 1.2
2017-Oct-04 08:00N 51°21' E 003°11'0 0.0
2017-Oct-04 07:27N 51°21' E 003°11'0 0.0
2017-Oct-04 07:00N 51°21' E 003°11'0 0.0
2017-Oct-04 06:27N 51°21' E 003°11'0 0.0
2017-Oct-04 06:00N 51°21' E 003°11'0 0.0
2017-Oct-04 05:30N 51°21' E 003°11'0 0.0
2017-Oct-04 04:57N 51°21' E 003°11'0 0.0
2017-Oct-04 04:30N 51°21' E 003°11'0 0.0
2017-Oct-04 04:00N 51°21' E 003°11'0 0.0
2017-Oct-04 03:30N 51°21' E 003°11'0 0.0
2017-Oct-04 02:57N 51°21' E 003°11'0 0.0
2017-Oct-04 02:30N 51°21' E 003°11'0 0.0
2017-Oct-04 02:00N 51°21' E 003°11'0 0.0
2017-Oct-04 01:30N 51°21' E 003°11'0 0.0
2017-Oct-04 00:57N 51°21' E 003°11'0 0.0
2017-Oct-04 00:30N 51°21' E 003°11'0 0.0
2017-Oct-04 00:00N 51°21' E 003°11'0 0.0
2017-Oct-03 23:30N 51°21' E 003°11'0 0.0
2017-Oct-03 23:00N 51°21' E 003°11'0 0.0
2017-Oct-03 22:27N 51°21' E 003°11'0 0.0
2017-Oct-03 22:00N 51°21' E 003°11'0 0.0
2017-Oct-03 21:30N 51°21' E 003°11'0 0.0
2017-Oct-03 20:57N 51°21' E 003°11'0 0.0
2017-Oct-03 20:24N 51°21' E 003°11'0 0.0
2017-Oct-03 19:57N 51°21' E 003°11'0 0.0
2017-Oct-03 19:30N 51°21' E 003°11'0 0.0
2017-Oct-03 19:00N 51°21' E 003°11'0 0.0
2017-Oct-03 18:30N 51°21' E 003°11'0 0.0
2017-Oct-03 18:00N 51°21' E 003°11'0 0.0
2017-Oct-03 17:30N 51°21' E 003°11'0 0.0
2017-Oct-03 17:00N 51°21' E 003°11'0 0.0
2017-Oct-03 16:30N 51°21' E 003°11'0 0.0
2017-Oct-03 16:00N 51°21' E 003°11'0 0.0
2017-Oct-03 15:30N 51°21' E 003°11'0 0.0
2017-Oct-03 15:00N 51°21' E 003°11'0 0.0
2017-Oct-03 14:00N 51°21' E 003°11'0 0.0
2017-Oct-03 13:30N 51°21' E 003°11'0 0.0
2017-Oct-03 13:00N 51°21' E 003°11'0 0.0
2017-Oct-03 12:30N 51°21' E 003°11'0 0.0
2017-Oct-03 12:00N 51°21' E 003°11'0 0.0
2017-Oct-03 11:30N 51°21' E 003°11'0 0.0
2017-Oct-03 11:00N 51°21' E 003°11'0 0.0
2017-Oct-03 10:30N 51°21' E 003°11'0 0.0
2017-Oct-03 10:01N 51°21' E 003°11'0 0.0
2017-Oct-03 09:30N 51°21' E 003°11'0 0.0
2017-Oct-03 09:01N 51°21' E 003°11'0 0.0
2017-Oct-03 08:30N 51°21' E 003°11'0 0.0
2017-Oct-03 08:01N 51°21' E 003°11'0 0.0
2017-Oct-03 07:30N 51°21' E 003°11'0 0.4
2017-Oct-03 07:00N 51°21' E 003°12'0 0.8
2017-Oct-03 06:30N 51°21' E 003°12'510.8
2017-Oct-03 06:00N 51°24' E 003°05'815.4
2017-Oct-03 05:30N 51°25' E 002°52'612.1
2017-Oct-03 05:00N 51°23' E 002°43'5 9.0
2017-Oct-03 04:30N 51°22' E 002°36'4 7.6
2017-Oct-03 04:00N 51°24' E 002°31'510.1
2017-Oct-03 03:30N 51°29' E 002°35'510.5
2017-Oct-03 03:00N 51°34' E 002°38'510.0
2017-Oct-03 02:29N 51°39' E 002°39'510.7
2017-Oct-03 02:00N 51°44' E 002°38'510.2
2017-Oct-03 01:30N 51°46' E 002°46'510.3
2017-Oct-03 00:59N 51°47' E 002°54'610.4
2017-Oct-03 00:26N 51°49' E 003°03'510.1
2017-Oct-02 23:55N 51°50' E 003°11'410.0
2017-Oct-02 23:30N 51°52' E 003°18'510.3
2017-Oct-02 22:59N 51°56' E 003°21'510.9
2017-Oct-02 22:30N 52°01' E 003°24'5 9.9
2017-Oct-02 22:00N 52°03' E 003°32'510.4
2017-Oct-02 21:30N 52°03' E 003°40'510.4
2017-Oct-02 21:01N 52°04' E 003°49'4 7.7
2017-Oct-02 20:30N 52°02' E 003°54'612.2
2017-Oct-02 20:01N 51°59' E 004°03'1 2.5
2017-Oct-02 19:30N 51°58' E 004°03'2 3.8
2017-Oct-02 19:00N 51°58' E 003°60'1 1.1
2017-Oct-02 18:28N 51°57' E 003°60'0 0.0
2017-Oct-02 17:58N 51°57' E 003°60'0 0.0
2017-Oct-02 17:28N 51°57' E 003°60'0 0.0
2017-Oct-02 16:58N 51°57' E 003°60'0 0.0
2017-Oct-02 16:28N 51°57' E 003°60'0 0.0
2017-Oct-02 15:58N 51°57' E 003°60'0 0.0
2017-Oct-02 15:28N 51°57' E 003°60'0 0.0
2017-Oct-02 14:58N 51°57' E 003°60'0 0.0
2017-Oct-02 14:28N 51°57' E 003°60'0 0.0
2017-Oct-02 13:58N 51°57' E 003°60'0 0.0
2017-Oct-02 13:28N 51°57' E 003°60'0 0.0
2017-Oct-02 12:58N 51°57' E 003°60'0 0.0
2017-Oct-02 12:28N 51°57' E 003°60'0 0.0
2017-Oct-02 11:55N 51°57' E 003°60'0 0.0
2017-Oct-02 11:28N 51°57' E 003°60'0 0.0
2017-Oct-02 10:58N 51°57' E 003°60'0 0.0
2017-Oct-02 10:28N 51°57' E 003°60'0 0.0
2017-Oct-02 09:58N 51°57' E 003°60'0 0.0
2017-Oct-02 09:28N 51°57' E 003°60'0 0.0
2017-Oct-02 08:58N 51°57' E 003°60'0 0.0
2017-Oct-02 08:28N 51°57' E 003°60'0 0.0
2017-Oct-02 07:55N 51°57' E 003°60'0 0.0
2017-Oct-02 07:28N 51°57' E 003°60'0 0.0
2017-Oct-02 06:58N 51°57' E 003°60'0 0.0
2017-Oct-02 06:28N 51°57' E 003°60'0 0.0
2017-Oct-02 05:58N 51°57' E 003°60'0 0.0
2017-Oct-02 05:28N 51°57' E 003°60'0 0.0
2017-Oct-02 04:58N 51°57' E 003°60'0 0.0
2017-Oct-02 04:28N 51°57' E 003°60'0 0.0
2017-Oct-02 03:58N 51°57' E 003°60'0 0.0
2017-Oct-02 03:28N 51°57' E 003°60'0 0.0
2017-Oct-02 02:58N 51°57' E 003°60'0 0.0
2017-Oct-02 02:28N 51°57' E 003°60'0 0.0
2017-Oct-02 01:58N 51°57' E 003°60'0 0.0
2017-Oct-02 01:28N 51°57' E 003°60'0 0.0
2017-Oct-02 00:58N 51°57' E 003°60'0 0.0
2017-Oct-02 00:28N 51°57' E 003°60'0 0.1
2017-Oct-01 23:58N 51°57' E 003°60'0 0.1
2017-Oct-01 23:25N 51°57' E 003°60'0 0.0
2017-Oct-01 22:58N 51°57' E 003°60'0 0.0
2017-Oct-01 22:28N 51°57' E 003°60'0 0.0
2017-Oct-01 21:58N 51°57' E 003°60'0 0.0
2017-Oct-01 21:28N 51°57' E 003°60'0 0.0
2017-Oct-01 20:58N 51°57' E 003°60'0 0.0
2017-Oct-01 20:28N 51°57' E 003°60'0 0.0
2017-Oct-01 19:58N 51°57' E 003°60'0 0.0
2017-Oct-01 19:28N 51°57' E 003°60'0 0.0
2017-Oct-01 18:58N 51°57' E 003°60'0 0.0
2017-Oct-01 18:28N 51°57' E 003°60'0 0.0
2017-Oct-01 17:58N 51°57' E 003°60'0 0.0
2017-Oct-01 17:28N 51°57' E 003°60'0 0.0
2017-Oct-01 16:58N 51°57' E 003°60'0 0.0
2017-Oct-01 16:28N 51°57' E 003°60'0 0.0
2017-Oct-01 15:58N 51°57' E 003°60'0 0.0
2017-Oct-01 15:28N 51°57' E 003°60'0 0.0
2017-Oct-01 14:58N 51°57' E 003°60'0 0.0
2017-Oct-01 14:28N 51°57' E 003°60'0 0.0
2017-Oct-01 13:58N 51°57' E 003°60'0 0.0
2017-Oct-01 13:30N 51°57' E 003°60'1 1.3
2017-Oct-01 13:00N 51°58' E 003°60'2 3.1
2017-Oct-01 12:30N 51°58' E 004°02'2 3.2
2017-Oct-01 12:00N 51°59' E 004°05'4 7.8
2017-Oct-01 11:30N 52°00' E 003°59'611.8
2017-Oct-01 11:00N 52°01' E 003°50'3 5.0
2017-Oct-01 10:30N 52°01' E 003°45'3 5.8
2017-Oct-01 10:00N 52°04' E 003°47'3 6.4
2017-Oct-01 09:30N 52°07' E 003°47'3 6.3
2017-Oct-01 09:00N 52°10' E 003°46'3 6.5
2017-Oct-01 08:30N 52°13' E 003°46'4 7.9
2017-Oct-01 08:00N 52°17' E 003°47'5 9.2
2017-Oct-01 07:30N 52°22' E 003°49'5 9.2
2017-Oct-01 07:00N 52°26' E 003°50'5 9.2
2017-Oct-01 06:30N 52°31' E 003°51'5 9.2
2017-Oct-01 06:00N 52°35' E 003°53'5 9.3
2017-Oct-01 05:30N 52°40' E 003°54'5 9.1
2017-Oct-01 05:00N 52°44' E 003°56'5 9.2
2017-Oct-01 04:30N 52°49' E 003°57'5 9.4
2017-Oct-01 04:00N 52°53' E 003°59'5 9.4
2017-Oct-01 03:30N 52°58' E 004°01'5 9.3
2017-Oct-01 03:00N 53°01' E 004°07'211 8.4
2017-Sep-30 02:00N 53°32' E 009°55'0 0.0
2017-Sep-30 01:30N 53°32' E 009°55'0 0.0
2017-Sep-30 01:00N 53°32' E 009°55'0 0.0
2017-Sep-30 00:30N 53°32' E 009°55'0 0.0
2017-Sep-30 00:00N 53°32' E 009°55'0 0.0
2017-Sep-29 23:30N 53°32' E 009°55'0 0.0
2017-Sep-29 22:57N 53°32' E 009°55'0 0.0
2017-Sep-29 22:30N 53°32' E 009°55'0 0.0
2017-Sep-29 22:00N 53°32' E 009°55'  
Track history (hours):
 
Tides and Currents Weather Stations Pressure Air Temp Water Temp Dewpoint Dewpoint Depression Visibility Wind Speed Wind Dir Waves Ship Positions

CMA CGM Magellan

Last reported at 2017-Oct-09 21:33 UTC. Time now 2017-Oct-17 02:19 UTC.
Position N 36°55' E 000°22'.

Length 365 m; draft 14.8 m.

Type: Ship. MMSI: 235081888.

Date/timePositionNaut miles runAvg speedWind from/ knotsBaromVisibWave heightAir tempDewpointWater temp
2017-Oct-09 21:33N 36°55' E 000°22'117.5
2017-Oct-09 21:30N 36°55' E 000°22'917.7
2017-Oct-09 21:00N 36°52' E 000°11'1217.8
2017-Oct-09 20:20N 36°48' W 000°03'3217.5
2017-Oct-09 18:30N 36°38' W 000°41'29117.5
2017-Oct-09 01:54N 35°60' W 006°38'716.7
2017-Oct-09 01:28N 36°02' W 006°47'1016.6
2017-Oct-09 00:53N 36°04' W 006°59'616.9
2017-Oct-09 00:30N 36°06' W 007°06'917.2
2017-Oct-09 00:00N 36°08' W 007°17'817.2
2017-Oct-08 23:30N 36°11' W 007°27'1317.5
2017-Oct-08 22:46N 36°15' W 007°42'517.1
2017-Oct-08 22:30N 36°16' W 007°47'917.3
2017-Oct-08 22:00N 36°18' W 007°58'917.3
2017-Oct-08 21:30N 36°20' W 008°08'1417.4
2017-Oct-08 20:42N 36°23' W 008°25'617.3
2017-Oct-08 20:23N 36°25' W 008°31'616.9
2017-Oct-08 20:00N 36°26' W 008°39'917.4
2017-Oct-08 19:30N 36°29' W 008°50'917.4
2017-Oct-08 19:00N 36°31' W 008°60'917.1
2017-Oct-08 18:30N 36°33' W 009°10'816.4
2017-Oct-08 18:00N 36°37' W 009°19'917.6
2017-Oct-08 17:30N 36°43' W 009°27'917.0
2017-Oct-08 17:00N 36°50' W 009°33'918.5
2017-Oct-08 16:30N 36°59' W 009°36'816.3
2017-Oct-08 16:00N 37°07' W 009°38'917.4
2017-Oct-08 15:30N 37°16' W 009°41'917.7
2017-Oct-08 15:00N 37°24' W 009°43'917.4
2017-Oct-08 14:30N 37°33' W 009°46'917.3
2017-Oct-08 14:00N 37°41' W 009°49'917.3
2017-Oct-08 13:30N 37°49' W 009°51'917.4
2017-Oct-08 13:00N 37°58' W 009°54'917.6
2017-Oct-08 12:30N 38°06' W 009°57'917.7
2017-Oct-08 12:00N 38°15' W 009°60'917.6
2017-Oct-08 11:30N 38°24' W 010°02'917.5
2017-Oct-08 11:00N 38°32' W 010°04'917.5
2017-Oct-08 10:30N 38°41' W 010°06'917.2
2017-Oct-08 10:00N 38°49' W 010°06'917.0
2017-Oct-08 09:30N 38°58' W 010°07'917.3
2017-Oct-08 09:00N 39°06' W 010°07'918.1
2017-Oct-08 08:30N 39°16' W 010°06'917.6
2017-Oct-08 08:00N 39°24' W 010°06'917.5
2017-Oct-08 07:30N 39°33' W 010°07'917.2
2017-Oct-08 07:00N 39°42' W 010°07'917.6
2017-Oct-08 06:30N 39°50' W 010°06'917.5
2017-Oct-08 06:00N 39°59' W 010°06'817.3
2017-Oct-08 05:30N 40°08' W 010°06'917.3
2017-Oct-08 05:00N 40°17' W 010°06'917.4
2017-Oct-08 04:30N 40°25' W 010°06'917.6
2017-Oct-08 04:00N 40°34' W 010°06'917.5
2017-Oct-08 03:30N 40°43' W 010°06'1017.6
2017-Oct-08 02:58N 40°52' W 010°06'817.5
2017-Oct-08 02:30N 41°00' W 010°06'9917.5
2017-Oct-07 20:52N 42°39' W 010°06'617.7
2017-Oct-07 20:30N 42°45' W 010°06'917.3
2017-Oct-07 20:00N 42°54' W 010°06'917.7
2017-Oct-07 19:30N 43°03' W 010°07'917.6
2017-Oct-07 19:00N 43°12' W 010°06'816.9
2017-Oct-07 18:30N 43°20' W 010°04'1117.3
2017-Oct-07 17:53N 43°29' W 009°56'717.7
2017-Oct-07 17:30N 43°35' W 009°51'1317.4
2017-Oct-07 16:46N 43°46' W 009°44'616.7
2017-Oct-07 16:25N 43°52' W 009°40'817.0
2017-Oct-07 15:56N 43°59' W 009°35'817.5
2017-Oct-07 15:30N 44°06' W 009°30'917.5
2017-Oct-07 15:00N 44°13' W 009°25'917.3
2017-Oct-07 14:29N 44°22' W 009°19'817.5
2017-Oct-07 14:00N 44°29' W 009°14'917.4
2017-Oct-07 13:28N 44°37' W 009°08'4617.6
2017-Oct-07 10:52N 45°18' W 008°37'717.1
2017-Oct-07 10:27N 45°24' W 008°33'917.2
2017-Oct-07 09:57N 45°31' W 008°26'3217.4
2017-Oct-07 08:06N 45°60' W 008°05'1617.4
2017-Oct-07 07:10N 46°14' W 007°54'1518.0
2017-Oct-07 06:22N 46°27' W 007°44'1417.7
2017-Oct-07 05:34N 46°39' W 007°34'217.7
2017-Oct-07 05:27N 46°41' W 007°32'1417.9
2017-Oct-07 04:40N 46°53' W 007°23'317.5
2017-Oct-07 04:30N 46°56' W 007°21'1017.4
2017-Oct-07 03:55N 47°05' W 007°14'717.7
2017-Oct-07 03:30N 47°11' W 007°08'1317.8
2017-Oct-07 02:46N 47°23' W 006°59'717.3
2017-Oct-07 02:24N 47°28' W 006°55'1116.4
2017-Oct-07 01:42N 47°39' W 006°47'416.8
2017-Oct-07 01:29N 47°42' W 006°45'816.6
2017-Oct-07 01:00N 47°49' W 006°39'816.9
2017-Oct-07 00:30N 47°56' W 006°33'917.5
2017-Oct-07 00:00N 48°04' W 006°27'918.2
2017-Oct-06 23:30N 48°12' W 006°21'918.6
2017-Oct-06 23:00N 48°20' W 006°14'1019.2
2017-Oct-06 22:30N 48°29' W 006°07'1019.5
2017-Oct-06 22:00N 48°37' W 006°00'1019.6
2017-Oct-06 21:30N 48°46' W 005°53'918.9
2017-Oct-06 21:00N 48°54' W 005°45'918.7
2017-Oct-06 20:30N 48°59' W 005°33'918.2
2017-Oct-06 20:00N 49°03' W 005°21'917.7
2017-Oct-06 19:30N 49°08' W 005°09'917.1
2017-Oct-06 19:00N 49°12' W 004°58'816.7
2017-Oct-06 18:30N 49°16' W 004°47'816.1
2017-Oct-06 18:00N 49°20' W 004°36'815.7
2017-Oct-06 17:30N 49°24' W 004°26'815.7
2017-Oct-06 16:58N 49°28' W 004°14'3717.0
2017-Oct-06 14:48N 49°46' W 003°25'619.0
2017-Oct-06 14:30N 49°49' W 003°18'1019.7
2017-Oct-06 14:00N 49°54' W 003°04'1020.3
2017-Oct-06 13:30N 49°58' W 002°50'1120.7
2017-Oct-06 12:59N 50°01' W 002°34'1019.8
2017-Oct-06 12:28N 50°01' W 002°18'919.7
2017-Oct-06 12:00N 49°59' W 002°04'1019.0
2017-Oct-06 11:30N 49°57' W 001°50'918.1
2017-Oct-06 11:00N 49°54' W 001°36'917.2
2017-Oct-06 10:30N 49°51' W 001°24'816.2
2017-Oct-06 10:00N 49°48' W 001°12'815.5
2017-Oct-06 09:30N 49°45' W 001°01'815.6
2017-Oct-06 09:00N 49°42' W 000°50'815.6
2017-Oct-06 08:29N 49°40' W 000°38'715.3
2017-Oct-06 08:00N 49°37' W 000°28'815.2
2017-Oct-06 07:30N 49°34' W 000°17'714.4
2017-Oct-06 07:01N 49°31' W 000°07'611.7
2017-Oct-06 06:30N 49°30' E 000°02'5 9.2
2017-Oct-06 06:00N 49°28' E 000°08'1 2.6
2017-Oct-06 05:30N 49°27' E 000°10'0 0.0
2017-Oct-06 05:00N 49°27' E 000°10'0 0.0
2017-Oct-06 04:30N 49°27' E 000°10'0 0.0
2017-Oct-06 04:00N 49°27' E 000°10'0 0.0
2017-Oct-06 03:30N 49°27' E 000°10'0 0.0
2017-Oct-06 03:00N 49°27' E 000°10'0 0.0
2017-Oct-06 02:30N 49°27' E 000°10'0 0.0
2017-Oct-06 02:00N 49°27' E 000°10'0 0.0
2017-Oct-06 01:30N 49°27' E 000°10'0 0.0
2017-Oct-06 01:00N 49°27' E 000°10'0 0.0
2017-Oct-06 00:30N 49°27' E 000°10'0 0.0
2017-Oct-06 00:00N 49°27' E 000°10'0 0.0
2017-Oct-05 23:30N 49°27' E 000°10'0 0.0
2017-Oct-05 23:00N 49°27' E 000°10'0 0.0
2017-Oct-05 22:30N 49°27' E 000°10'0 0.0
2017-Oct-05 22:00N 49°27' E 000°10'0 0.0
2017-Oct-05 21:30N 49°27' E 000°10'0 0.0
2017-Oct-05 21:00N 49°27' E 000°10'0 0.0
2017-Oct-05 20:27N 49°27' E 000°10'0 0.0
2017-Oct-05 20:00N 49°27' E 000°10'0 0.0
2017-Oct-05 19:30N 49°27' E 000°10'0 0.0
2017-Oct-05 19:00N 49°27' E 000°10'0 0.0
2017-Oct-05 18:30N 49°27' E 000°10'0 0.0
2017-Oct-05 18:00N 49°27' E 000°10'0 0.0
2017-Oct-05 17:30N 49°27' E 000°10'0 0.0
2017-Oct-05 17:00N 49°27' E 000°10'0 0.0
2017-Oct-05 15:30N 49°27' E 000°10'0 0.0
2017-Oct-05 15:00N 49°27' E 000°10'0 0.0
2017-Oct-05 14:30N 49°27' E 000°10'0 0.0
2017-Oct-05 14:00N 49°27' E 000°10'0 0.0
2017-Oct-05 13:30N 49°27' E 000°10'0 0.0
2017-Oct-05 13:00N 49°27' E 000°10'0 0.0
2017-Oct-05 12:30N 49°27' E 000°10'0 0.0
2017-Oct-05 12:00N 49°27' E 000°10'0 0.0
2017-Oct-05 11:30N 49°27' E 000°10'0 0.0
2017-Oct-05 11:00N 49°27' E 000°10'0 0.0
2017-Oct-05 10:30N 49°27' E 000°10'0 0.0
2017-Oct-05 10:00N 49°27' E 000°10'0 0.0
2017-Oct-05 09:30N 49°27' E 000°10'0 0.0
2017-Oct-05 08:57N 49°27' E 000°10'0 0.0
2017-Oct-05 08:30N 49°27' E 000°10'0 0.0
2017-Oct-05 08:00N 49°27' E 000°10'0 0.0
2017-Oct-05 07:30N 49°27' E 000°10'0 0.0
2017-Oct-05 07:00N 49°27' E 000°10'0 0.0
2017-Oct-05 06:30N 49°27' E 000°10'0 0.0
2017-Oct-05 06:00N 49°27' E 000°10'0 0.0
2017-Oct-05 05:30N 49°27' E 000°10'0 0.0
2017-Oct-05 05:00N 49°27' E 000°10'0 0.0
2017-Oct-05 04:30N 49°27' E 000°10'0 0.0
2017-Oct-05 04:00N 49°27' E 000°10'0 0.0
2017-Oct-05 03:30N 49°27' E 000°10'0 0.0
2017-Oct-05 03:00N 49°27' E 000°10'0 0.1
2017-Oct-05 02:31N 49°27' E 000°10'1 1.4
2017-Oct-05 02:00N 49°27' E 000°09'4 8.6
2017-Oct-05 01:30N 49°30' E 000°03'612.2
2017-Oct-05 01:00N 49°31' W 000°06'4 8.7
2017-Oct-05 00:31N 49°33' W 000°12'5 9.5
2017-Oct-05 00:00N 49°38' W 000°12'611.1
2017-Oct-04 23:30N 49°43' W 000°12'612.7
2017-Oct-04 23:00N 49°49' W 000°13'612.5
2017-Oct-04 22:30N 49°56' W 000°12'812.8
2017-Oct-04 21:53N 50°04' W 000°12'512.9
2017-Oct-04 21:31N 50°09' W 000°12'713.0
2017-Oct-04 20:58N 50°15' W 000°13'613.1
2017-Oct-04 20:30N 50°22' W 000°12'612.7
2017-Oct-04 20:00N 50°27' W 000°07'613.0
2017-Oct-04 19:30N 50°29' E 000°03'613.0
2017-Oct-04 19:00N 50°31' E 000°13'613.0
2017-Oct-04 18:30N 50°32' E 000°23'612.8
2017-Oct-04 18:00N 50°34' E 000°32'612.5
2017-Oct-04 17:30N 50°37' E 000°41'613.0
2017-Oct-04 17:00N 50°41' E 000°50'612.9
2017-Oct-04 16:30N 50°45' E 000°58'713.0
2017-Oct-04 16:00N 50°48' E 001°06'713.2
2017-Oct-04 15:30N 50°52' E 001°14'713.1
2017-Oct-04 15:00N 50°57' E 001°22'713.4
2017-Oct-04 14:30N 51°02' E 001°29'713.1
2017-Oct-04 14:00N 51°07' E 001°36'713.2
2017-Oct-04 13:30N 51°11' E 001°44'613.0
2017-Oct-04 13:00N 51°17' E 001°50'713.1
2017-Oct-04 12:30N 51°22' E 001°56'611.1
2017-Oct-04 12:00N 51°25' E 002°04'713.3
2017-Oct-04 11:30N 51°22' E 002°13'612.4
2017-Oct-04 11:00N 51°22' E 002°23'612.6
2017-Oct-04 10:30N 51°23' E 002°33'612.2
2017-Oct-04 10:00N 51°23' E 002°43'611.4
2017-Oct-04 09:31N 51°25' E 002°51'815.5
2017-Oct-04 09:00N 51°25' E 003°04'612.1
2017-Oct-04 08:30N 51°21' E 003°12'1 1.2
2017-Oct-04 08:00N 51°21' E 003°11'0 0.0
2017-Oct-04 07:27N 51°21' E 003°11'0 0.0
2017-Oct-04 07:00N 51°21' E 003°11'0 0.0
2017-Oct-04 06:27N 51°21' E 003°11'0 0.0
2017-Oct-04 06:00N 51°21' E 003°11'0 0.0
2017-Oct-04 05:30N 51°21' E 003°11'0 0.0
2017-Oct-04 04:57N 51°21' E 003°11'0 0.0
2017-Oct-04 04:30N 51°21' E 003°11'0 0.0
2017-Oct-04 04:00N 51°21' E 003°11'0 0.0
2017-Oct-04 03:30N 51°21' E 003°11'0 0.0
2017-Oct-04 02:57N 51°21' E 003°11'0 0.0
2017-Oct-04 02:30N 51°21' E 003°11'0 0.0
2017-Oct-04 02:00N 51°21' E 003°11'0 0.0
2017-Oct-04 01:30N 51°21' E 003°11'0 0.0
2017-Oct-04 00:57N 51°21' E 003°11'0 0.0
2017-Oct-04 00:30N 51°21' E 003°11'0 0.0
2017-Oct-04 00:00N 51°21' E 003°11'0 0.0
2017-Oct-03 23:30N 51°21' E 003°11'0 0.0
2017-Oct-03 23:00N 51°21' E 003°11'0 0.0
2017-Oct-03 22:27N 51°21' E 003°11'0 0.0
2017-Oct-03 22:00N 51°21' E 003°11'0 0.0
2017-Oct-03 21:30N 51°21' E 003°11'0 0.0
2017-Oct-03 20:57N 51°21' E 003°11'0 0.0
2017-Oct-03 20:24N 51°21' E 003°11'0 0.0
2017-Oct-03 19:57N 51°21' E 003°11'0 0.0
2017-Oct-03 19:30N 51°21' E 003°11'0 0.0
2017-Oct-03 19:00N 51°21' E 003°11'0 0.0
2017-Oct-03 18:30N 51°21' E 003°11'0 0.0
2017-Oct-03 18:00N 51°21' E 003°11'0 0.0
2017-Oct-03 17:30N 51°21' E 003°11'0 0.0
2017-Oct-03 17:00N 51°21' E 003°11'0 0.0
2017-Oct-03 16:30N 51°21' E 003°11'0 0.0
2017-Oct-03 16:00N 51°21' E 003°11'0 0.0
2017-Oct-03 15:30N 51°21' E 003°11'0 0.0
2017-Oct-03 15:00N 51°21' E 003°11'0 0.0
2017-Oct-03 14:00N 51°21' E 003°11'0 0.0
2017-Oct-03 13:30N 51°21' E 003°11'0 0.0
2017-Oct-03 13:00N 51°21' E 003°11'0 0.0
2017-Oct-03 12:30N 51°21' E 003°11'0 0.0
2017-Oct-03 12:00N 51°21' E 003°11'0 0.0
2017-Oct-03 11:30N 51°21' E 003°11'0 0.0
2017-Oct-03 11:00N 51°21' E 003°11'0 0.0
2017-Oct-03 10:30N 51°21' E 003°11'0 0.0
2017-Oct-03 10:01N 51°21' E 003°11'0 0.0
2017-Oct-03 09:30N 51°21' E 003°11'0 0.0
2017-Oct-03 09:01N 51°21' E 003°11'0 0.0
2017-Oct-03 08:30N 51°21' E 003°11'0 0.0
2017-Oct-03 08:01N 51°21' E 003°11'0 0.0
2017-Oct-03 07:30N 51°21' E 003°11'0 0.4
2017-Oct-03 07:00N 51°21' E 003°12'0 0.8
2017-Oct-03 06:30N 51°21' E 003°12'510.8
2017-Oct-03 06:00N 51°24' E 003°05'815.4
2017-Oct-03 05:30N 51°25' E 002°52'612.1
2017-Oct-03 05:00N 51°23' E 002°43'5 9.0
2017-Oct-03 04:30N 51°22' E 002°36'4 7.6
2017-Oct-03 04:00N 51°24' E 002°31'510.1
2017-Oct-03 03:30N 51°29' E 002°35'510.5
2017-Oct-03 03:00N 51°34' E 002°38'510.0
2017-Oct-03 02:29N 51°39' E 002°39'510.7
2017-Oct-03 02:00N 51°44' E 002°38'510.2
2017-Oct-03 01:30N 51°46' E 002°46'510.3
2017-Oct-03 00:59N 51°47' E 002°54'610.4
2017-Oct-03 00:26N 51°49' E 003°03'510.1
2017-Oct-02 23:55N 51°50' E 003°11'410.0
2017-Oct-02 23:30N 51°52' E 003°18'510.3
2017-Oct-02 22:59N 51°56' E 003°21'510.9
2017-Oct-02 22:30N 52°01' E 003°24'5 9.9
2017-Oct-02 22:00N 52°03' E 003°32'510.4
2017-Oct-02 21:30N 52°03' E 003°40'510.4
2017-Oct-02 21:01N 52°04' E 003°49'4 7.7
2017-Oct-02 20:30N 52°02' E 003°54'612.2
2017-Oct-02 20:01N 51°59' E 004°03'1 2.5
2017-Oct-02 19:30N 51°58' E 004°03'2 3.8
2017-Oct-02 19:00N 51°58' E 003°60'1 1.1
2017-Oct-02 18:28N 51°57' E 003°60'0 0.0
2017-Oct-02 17:58N 51°57' E 003°60'0 0.0
2017-Oct-02 17:28N 51°57' E 003°60'0 0.0
2017-Oct-02 16:58N 51°57' E 003°60'0 0.0
2017-Oct-02 16:28N 51°57' E 003°60'0 0.0
2017-Oct-02 15:58N 51°57' E 003°60'0 0.0
2017-Oct-02 15:28N 51°57' E 003°60'0 0.0
2017-Oct-02 14:58N 51°57' E 003°60'0 0.0
2017-Oct-02 14:28N 51°57' E 003°60'0 0.0
2017-Oct-02 13:58N 51°57' E 003°60'0 0.0
2017-Oct-02 13:28N 51°57' E 003°60'0 0.0
2017-Oct-02 12:58N 51°57' E 003°60'0 0.0
2017-Oct-02 12:28N 51°57' E 003°60'0 0.0
2017-Oct-02 11:55N 51°57' E 003°60'0 0.0
2017-Oct-02 11:28N 51°57' E 003°60'0 0.0
2017-Oct-02 10:58N 51°57' E 003°60'0 0.0
2017-Oct-02 10:28N 51°57' E 003°60'0 0.0
2017-Oct-02 09:58N 51°57' E 003°60'0 0.0
2017-Oct-02 09:28N 51°57' E 003°60'0 0.0
2017-Oct-02 08:58N 51°57' E 003°60'0 0.0
2017-Oct-02 08:28N 51°57' E 003°60'0 0.0
2017-Oct-02 07:55N 51°57' E 003°60'0 0.0
2017-Oct-02 07:28N 51°57' E 003°60'0 0.0
2017-Oct-02 06:58N 51°57' E 003°60'0 0.0
2017-Oct-02 06:28N 51°57' E 003°60'0 0.0
2017-Oct-02 05:58N 51°57' E 003°60'0 0.0
2017-Oct-02 05:28N 51°57' E 003°60'0 0.0
2017-Oct-02 04:58N 51°57' E 003°60'0 0.0
2017-Oct-02 04:28N 51°57' E 003°60'0 0.0
2017-Oct-02 03:58N 51°57' E 003°60'0 0.0
2017-Oct-02 03:28N 51°57' E 003°60'0 0.0
2017-Oct-02 02:58N 51°57' E 003°60'0 0.0
2017-Oct-02 02:28N 51°57' E 003°60'0 0.0
2017-Oct-02 01:58N 51°57' E 003°60'0 0.0
2017-Oct-02 01:28N 51°57' E 003°60'0 0.0
2017-Oct-02 00:58N 51°57' E 003°60'0 0.0
2017-Oct-02 00:28N 51°57' E 003°60'0 0.1
2017-Oct-01 23:58N 51°57' E 003°60'0 0.1
2017-Oct-01 23:25N 51°57' E 003°60'0 0.0
2017-Oct-01 22:58N 51°57' E 003°60'0 0.0
2017-Oct-01 22:28N 51°57' E 003°60'0 0.0
2017-Oct-01 21:58N 51°57' E 003°60'0 0.0
2017-Oct-01 21:28N 51°57' E 003°60'0 0.0
2017-Oct-01 20:58N 51°57' E 003°60'0 0.0
2017-Oct-01 20:28N 51°57' E 003°60'0 0.0
2017-Oct-01 19:58N 51°57' E 003°60'0 0.0
2017-Oct-01 19:28N 51°57' E 003°60'0 0.0
2017-Oct-01 18:58N 51°57' E 003°60'0 0.0
2017-Oct-01 18:28N 51°57' E 003°60'0 0.0
2017-Oct-01 17:58N 51°57' E 003°60'0 0.0
2017-Oct-01 17:28N 51°57' E 003°60'0 0.0
2017-Oct-01 16:58N 51°57' E 003°60'0 0.0
2017-Oct-01 16:28N 51°57' E 003°60'0 0.0
2017-Oct-01 15:58N 51°57' E 003°60'0 0.0
2017-Oct-01 15:28N 51°57' E 003°60'0 0.0
2017-Oct-01 14:58N 51°57' E 003°60'0 0.0
2017-Oct-01 14:28N 51°57' E 003°60'0 0.0
2017-Oct-01 13:58N 51°57' E 003°60'0 0.0
2017-Oct-01 13:30N 51°57' E 003°60'1 1.3
2017-Oct-01 13:00N 51°58' E 003°60'2 3.1
2017-Oct-01 12:30N 51°58' E 004°02'2 3.2
2017-Oct-01 12:00N 51°59' E 004°05'4 7.8
2017-Oct-01 11:30N 52°00' E 003°59'611.8
2017-Oct-01 11:00N 52°01' E 003°50'3 5.0
2017-Oct-01 10:30N 52°01' E 003°45'3 5.8
2017-Oct-01 10:00N 52°04' E 003°47'3 6.4
2017-Oct-01 09:30N 52°07' E 003°47'3 6.3
2017-Oct-01 09:00N 52°10' E 003°46'3 6.5
2017-Oct-01 08:30N 52°13' E 003°46'4 7.9
2017-Oct-01 08:00N 52°17' E 003°47'5 9.2
2017-Oct-01 07:30N 52°22' E 003°49'5 9.2
2017-Oct-01 07:00N 52°26' E 003°50'5 9.2
2017-Oct-01 06:30N 52°31' E 003°51'5 9.2
2017-Oct-01 06:00N 52°35' E 003°53'5 9.3
2017-Oct-01 05:30N 52°40' E 003°54'5 9.1
2017-Oct-01 05:00N 52°44' E 003°56'5 9.2
2017-Oct-01 04:30N 52°49' E 003°57'5 9.4
2017-Oct-01 04:00N 52°53' E 003°59'5 9.4
2017-Oct-01 03:30N 52°58' E 004°01'5 9.3
2017-Oct-01 03:00N 53°01' E 004°07'211 8.4
2017-Sep-30 02:00N 53°32' E 009°55'0 0.0
2017-Sep-30 01:30N 53°32' E 009°55'0 0.0
2017-Sep-30 01:00N 53°32' E 009°55'0 0.0
2017-Sep-30 00:30N 53°32' E 009°55'0 0.0
2017-Sep-30 00:00N 53°32' E 009°55'0 0.0
2017-Sep-29 23:30N 53°32' E 009°55'0 0.0
2017-Sep-29 22:57N 53°32' E 009°55'0 0.0
2017-Sep-29 22:30N 53°32' E 009°55'0 0.0
2017-Sep-29 22:00N 53°32' E 009°55'  

Dump ship's entire track history